sensor_id;sensor_type;location;lat;lon;timestamp;P1;durP1;ratioP1;P2;durP2;ratioP2
53391;SDS011;41667;51.922;8.850;2023-05-13T00:00:43;6.05;;;4.05;;
53391;SDS011;41667;51.922;8.850;2023-05-13T00:03:08;4.47;;;4.07;;
53391;SDS011;41667;51.922;8.850;2023-05-13T00:05:33;10.40;;;4.45;;
53391;SDS011;41667;51.922;8.850;2023-05-13T00:07:58;4.70;;;4.30;;
53391;SDS011;41667;51.922;8.850;2023-05-13T00:10:31;11.02;;;4.55;;
53391;SDS011;41667;51.922;8.850;2023-05-13T00:12:56;5.20;;;4.63;;
53391;SDS011;41667;51.922;8.850;2023-05-13T00:15:21;6.00;;;4.53;;
53391;SDS011;41667;51.922;8.850;2023-05-13T00:17:46;9.20;;;4.50;;
53391;SDS011;41667;51.922;8.850;2023-05-13T00:20:11;8.02;;;4.70;;
53391;SDS011;41667;51.922;8.850;2023-05-13T00:22:36;9.63;;;5.10;;
53391;SDS011;41667;51.922;8.850;2023-05-13T00:25:01;8.35;;;5.28;;
53391;SDS011;41667;51.922;8.850;2023-05-13T00:27:27;6.57;;;4.80;;
53391;SDS011;41667;51.922;8.850;2023-05-13T00:29:53;7.25;;;4.88;;
53391;SDS011;41667;51.922;8.850;2023-05-13T00:32:18;8.83;;;5.00;;
53391;SDS011;41667;51.922;8.850;2023-05-13T00:34:43;7.55;;;5.65;;
53391;SDS011;41667;51.922;8.850;2023-05-13T00:37:08;7.97;;;4.68;;
53391;SDS011;41667;51.922;8.850;2023-05-13T00:39:34;5.85;;;4.45;;
53391;SDS011;41667;51.922;8.850;2023-05-13T00:42:00;5.85;;;4.85;;
53391;SDS011;41667;51.922;8.850;2023-05-13T00:44:26;5.97;;;4.63;;
53391;SDS011;41667;51.922;8.850;2023-05-13T00:46:51;5.82;;;5.28;;
53391;SDS011;41667;51.922;8.850;2023-05-13T00:49:17;7.05;;;4.78;;
53391;SDS011;41667;51.922;8.850;2023-05-13T00:51:42;8.20;;;4.65;;
53391;SDS011;41667;51.922;8.850;2023-05-13T00:54:07;6.78;;;4.95;;
53391;SDS011;41667;51.922;8.850;2023-05-13T00:56:33;9.48;;;4.72;;
53391;SDS011;41667;51.922;8.850;2023-05-13T00:58:58;5.80;;;5.15;;
53391;SDS011;41667;51.922;8.850;2023-05-13T01:06:22;5.45;;;4.95;;
53391;SDS011;41667;51.922;8.850;2023-05-13T01:08:56;11.45;;;5.88;;
53391;SDS011;41667;51.922;8.850;2023-05-13T01:11:25;5.05;;;4.47;;
53391;SDS011;41667;51.922;8.850;2023-05-13T01:13:52;9.15;;;5.63;;
53391;SDS011;41667;51.922;8.850;2023-05-13T01:16:26;7.18;;;4.90;;
53391;SDS011;41667;51.922;8.850;2023-05-13T01:18:52;7.72;;;5.95;;
53391;SDS011;41667;51.922;8.850;2023-05-13T01:21:26;11.25;;;5.53;;
53391;SDS011;41667;51.922;8.850;2023-05-13T01:23:52;6.47;;;4.90;;
53391;SDS011;41667;51.922;8.850;2023-05-13T01:26:17;8.70;;;5.17;;
53391;SDS011;41667;51.922;8.850;2023-05-13T01:28:42;8.00;;;6.25;;
53391;SDS011;41667;51.922;8.850;2023-05-13T01:31:08;7.82;;;5.22;;
53391;SDS011;41667;51.922;8.850;2023-05-13T01:33:34;6.45;;;4.90;;
53391;SDS011;41667;51.922;8.850;2023-05-13T01:36:00;5.07;;;4.63;;
53391;SDS011;41667;51.922;8.850;2023-05-13T01:38:26;6.68;;;5.68;;
53391;SDS011;41667;51.922;8.850;2023-05-13T01:40:51;7.47;;;4.95;;
53391;SDS011;41667;51.922;8.850;2023-05-13T01:43:17;8.60;;;5.47;;
53391;SDS011;41667;51.922;8.850;2023-05-13T01:45:42;6.32;;;5.60;;
53391;SDS011;41667;51.922;8.850;2023-05-13T01:48:07;6.07;;;5.37;;
53391;SDS011;41667;51.922;8.850;2023-05-13T01:50:33;5.75;;;4.93;;
53391;SDS011;41667;51.922;8.850;2023-05-13T01:52:58;5.75;;;5.15;;
53391;SDS011;41667;51.922;8.850;2023-05-13T01:55:23;5.60;;;4.73;;
53391;SDS011;41667;51.922;8.850;2023-05-13T01:57:48;6.88;;;5.45;;
53391;SDS011;41667;51.922;8.850;2023-05-13T02:00:13;5.33;;;4.83;;
53391;SDS011;41667;51.922;8.850;2023-05-13T02:02:39;6.18;;;5.57;;
53391;SDS011;41667;51.922;8.850;2023-05-13T02:05:04;8.43;;;5.35;;
53391;SDS011;41667;51.922;8.850;2023-05-13T02:07:29;6.00;;;5.40;;
53391;SDS011;41667;51.922;8.850;2023-05-13T02:09:54;6.77;;;4.93;;
53391;SDS011;41667;51.922;8.850;2023-05-13T02:12:23;7.22;;;4.65;;
53391;SDS011;41667;51.922;8.850;2023-05-13T02:14:48;6.53;;;5.13;;
53391;SDS011;41667;51.922;8.850;2023-05-13T02:17:14;11.25;;;4.70;;
53391;SDS011;41667;51.922;8.850;2023-05-13T02:19:39;5.53;;;5.03;;
53391;SDS011;41667;51.922;8.850;2023-05-13T02:22:04;4.90;;;4.50;;
53391;SDS011;41667;51.922;8.850;2023-05-13T02:24:29;6.33;;;5.47;;
53391;SDS011;41667;51.922;8.850;2023-05-13T02:26:54;8.57;;;5.18;;
53391;SDS011;41667;51.922;8.850;2023-05-13T02:29:20;5.60;;;5.10;;
53391;SDS011;41667;51.922;8.850;2023-05-13T02:31:45;6.27;;;5.03;;
53391;SDS011;41667;51.922;8.850;2023-05-13T02:34:10;6.97;;;5.53;;
53391;SDS011;41667;51.922;8.850;2023-05-13T02:36:35;6.10;;;5.50;;
53391;SDS011;41667;51.922;8.850;2023-05-13T02:39:00;8.30;;;4.90;;
53391;SDS011;41667;51.922;8.850;2023-05-13T02:41:25;9.13;;;5.53;;
53391;SDS011;41667;51.922;8.850;2023-05-13T02:43:50;5.40;;;4.63;;
53391;SDS011;41667;51.922;8.850;2023-05-13T02:46:16;6.60;;;5.22;;
53391;SDS011;41667;51.922;8.850;2023-05-13T02:48:41;6.07;;;5.47;;
53391;SDS011;41667;51.922;8.850;2023-05-13T02:51:06;8.10;;;5.13;;
53391;SDS011;41667;51.922;8.850;2023-05-13T02:53:31;5.70;;;4.90;;
53391;SDS011;41667;51.922;8.850;2023-05-13T02:55:56;10.70;;;6.23;;
53391;SDS011;41667;51.922;8.850;2023-05-13T02:58:21;8.10;;;5.55;;
53391;SDS011;41667;51.922;8.850;2023-05-13T03:00:47;6.17;;;5.20;;
53391;SDS011;41667;51.922;8.850;2023-05-13T03:03:12;7.57;;;5.68;;
53391;SDS011;41667;51.922;8.850;2023-05-13T03:05:37;5.70;;;5.15;;
53391;SDS011;41667;51.922;8.850;2023-05-13T03:08:02;5.47;;;4.90;;
53391;SDS011;41667;51.922;8.850;2023-05-13T03:10:27;7.43;;;5.60;;
53391;SDS011;41667;51.922;8.850;2023-05-13T03:12:53;7.95;;;5.43;;
53391;SDS011;41667;51.922;8.850;2023-05-13T03:15:18;6.37;;;4.53;;
53391;SDS011;41667;51.922;8.850;2023-05-13T03:17:43;8.35;;;5.90;;
53391;SDS011;41667;51.922;8.850;2023-05-13T03:20:09;6.20;;;5.60;;
53391;SDS011;41667;51.922;8.850;2023-05-13T03:22:35;6.32;;;5.72;;
53391;SDS011;41667;51.922;8.850;2023-05-13T03:25:00;6.15;;;5.55;;
53391;SDS011;41667;51.922;8.850;2023-05-13T03:27:25;6.03;;;5.43;;
53391;SDS011;41667;51.922;8.850;2023-05-13T03:29:50;6.80;;;5.50;;
53391;SDS011;41667;51.922;8.850;2023-05-13T03:32:15;8.77;;;5.75;;
53391;SDS011;41667;51.922;8.850;2023-05-13T03:34:40;5.93;;;5.33;;
53391;SDS011;41667;51.922;8.850;2023-05-13T03:37:06;8.57;;;5.40;;
53391;SDS011;41667;51.922;8.850;2023-05-13T03:39:31;8.77;;;5.85;;
53391;SDS011;41667;51.922;8.850;2023-05-13T03:41:56;7.00;;;5.90;;
53391;SDS011;41667;51.922;8.850;2023-05-13T03:44:21;12.27;;;5.95;;
53391;SDS011;41667;51.922;8.850;2023-05-13T03:46:47;7.55;;;5.60;;
53391;SDS011;41667;51.922;8.850;2023-05-13T03:49:12;8.00;;;6.13;;
53391;SDS011;41667;51.922;8.850;2023-05-13T03:51:37;6.32;;;5.55;;
53391;SDS011;41667;51.922;8.850;2023-05-13T03:54:02;10.43;;;5.65;;
53391;SDS011;41667;51.922;8.850;2023-05-13T03:56:27;6.93;;;5.50;;
53391;SDS011;41667;51.922;8.850;2023-05-13T03:58:52;5.67;;;5.17;;
53391;SDS011;41667;51.922;8.850;2023-05-13T04:01:18;8.43;;;4.65;;
53391;SDS011;41667;51.922;8.850;2023-05-13T04:03:43;15.18;;;5.28;;
53391;SDS011;41667;51.922;8.850;2023-05-13T04:06:10;6.38;;;5.70;;
53391;SDS011;41667;51.922;8.850;2023-05-13T04:08:35;7.63;;;5.53;;
53391;SDS011;41667;51.922;8.850;2023-05-13T04:11:00;8.27;;;5.78;;
53391;SDS011;41667;51.922;8.850;2023-05-13T04:13:25;7.87;;;5.37;;
53391;SDS011;41667;51.922;8.850;2023-05-13T04:15:50;8.98;;;5.30;;
53391;SDS011;41667;51.922;8.850;2023-05-13T04:18:18;6.75;;;5.22;;
53391;SDS011;41667;51.922;8.850;2023-05-13T04:20:43;9.57;;;5.20;;
53391;SDS011;41667;51.922;8.850;2023-05-13T04:23:08;8.75;;;5.30;;
53391;SDS011;41667;51.922;8.850;2023-05-13T04:25:34;5.45;;;4.88;;
53391;SDS011;41667;51.922;8.850;2023-05-13T04:27:59;5.43;;;4.93;;
53391;SDS011;41667;51.922;8.850;2023-05-13T04:30:24;9.80;;;5.40;;
53391;SDS011;41667;51.922;8.850;2023-05-13T04:32:49;6.57;;;5.37;;
53391;SDS011;41667;51.922;8.850;2023-05-13T04:35:15;5.50;;;5.00;;
53391;SDS011;41667;51.922;8.850;2023-05-13T04:37:40;5.82;;;4.90;;
53391;SDS011;41667;51.922;8.850;2023-05-13T04:40:05;7.07;;;5.80;;
53391;SDS011;41667;51.922;8.850;2023-05-13T04:42:32;6.40;;;5.57;;
53391;SDS011;41667;51.922;8.850;2023-05-13T04:44:57;6.27;;;4.77;;
53391;SDS011;41667;51.922;8.850;2023-05-13T04:47:22;5.57;;;5.00;;
53391;SDS011;41667;51.922;8.850;2023-05-13T04:49:47;5.47;;;4.97;;
53391;SDS011;41667;51.922;8.850;2023-05-13T04:52:12;6.57;;;5.35;;
53391;SDS011;41667;51.922;8.850;2023-05-13T04:54:38;8.30;;;5.73;;
53391;SDS011;41667;51.922;8.850;2023-05-13T04:57:03;5.60;;;4.57;;
53391;SDS011;41667;51.922;8.850;2023-05-13T04:59:28;6.30;;;5.70;;
53391;SDS011;41667;51.922;8.850;2023-05-13T05:01:53;8.10;;;5.37;;
53391;SDS011;41667;51.922;8.850;2023-05-13T05:04:19;5.53;;;4.70;;
53391;SDS011;41667;51.922;8.850;2023-05-13T05:06:44;8.40;;;5.27;;
53391;SDS011;41667;51.922;8.850;2023-05-13T05:09:09;5.43;;;4.82;;
53391;SDS011;41667;51.922;8.850;2023-05-13T05:11:34;8.52;;;5.60;;
53391;SDS011;41667;51.922;8.850;2023-05-13T05:14:00;10.65;;;6.22;;
53391;SDS011;41667;51.922;8.850;2023-05-13T05:16:25;6.13;;;5.28;;
53391;SDS011;41667;51.922;8.850;2023-05-13T05:18:50;11.30;;;6.00;;
53391;SDS011;41667;51.922;8.850;2023-05-13T05:21:15;6.60;;;5.22;;
53391;SDS011;41667;51.922;8.850;2023-05-13T05:23:42;9.95;;;5.88;;
53391;SDS011;41667;51.922;8.850;2023-05-13T05:26:07;9.73;;;6.13;;
53391;SDS011;41667;51.922;8.850;2023-05-13T05:28:32;7.60;;;5.47;;
53391;SDS011;41667;51.922;8.850;2023-05-13T05:30:57;7.47;;;5.82;;
53391;SDS011;41667;51.922;8.850;2023-05-13T05:33:22;5.53;;;5.00;;
53391;SDS011;41667;51.922;8.850;2023-05-13T05:35:48;8.00;;;6.38;;
53391;SDS011;41667;51.922;8.850;2023-05-13T05:38:13;10.07;;;7.95;;
53391;SDS011;41667;51.922;8.850;2023-05-13T05:40:39;11.53;;;6.50;;
53391;SDS011;41667;51.922;8.850;2023-05-13T05:43:04;9.43;;;7.22;;
53391;SDS011;41667;51.922;8.850;2023-05-13T05:45:30;8.80;;;6.70;;
53391;SDS011;41667;51.922;8.850;2023-05-13T05:47:55;9.23;;;6.85;;
53391;SDS011;41667;51.922;8.850;2023-05-13T05:50:21;8.52;;;6.28;;
53391;SDS011;41667;51.922;8.850;2023-05-13T05:52:46;10.25;;;7.22;;
53391;SDS011;41667;51.922;8.850;2023-05-13T05:55:12;7.43;;;6.00;;
53391;SDS011;41667;51.922;8.850;2023-05-13T05:57:37;8.13;;;6.55;;
53391;SDS011;41667;51.922;8.850;2023-05-13T06:00:02;9.50;;;7.45;;
53391;SDS011;41667;51.922;8.850;2023-05-13T06:02:27;7.28;;;6.55;;
53391;SDS011;41667;51.922;8.850;2023-05-13T06:04:52;11.60;;;6.78;;
53391;SDS011;41667;51.922;8.850;2023-05-13T06:07:17;9.85;;;6.63;;
53391;SDS011;41667;51.922;8.850;2023-05-13T06:09:42;7.97;;;5.97;;
53391;SDS011;41667;51.922;8.850;2023-05-13T06:12:08;8.32;;;7.05;;
53391;SDS011;41667;51.922;8.850;2023-05-13T06:14:33;10.60;;;7.50;;
53391;SDS011;41667;51.922;8.850;2023-05-13T06:16:58;8.80;;;6.70;;
53391;SDS011;41667;51.922;8.850;2023-05-13T06:19:23;6.93;;;6.22;;
53391;SDS011;41667;51.922;8.850;2023-05-13T06:21:48;10.10;;;6.75;;
53391;SDS011;41667;51.922;8.850;2023-05-13T06:24:13;7.93;;;6.10;;
53391;SDS011;41667;51.922;8.850;2023-05-13T06:26:39;9.98;;;6.20;;
53391;SDS011;41667;51.922;8.850;2023-05-13T06:29:04;9.30;;;6.77;;
53391;SDS011;41667;51.922;8.850;2023-05-13T06:31:29;8.50;;;6.47;;
53391;SDS011;41667;51.922;8.850;2023-05-13T06:33:54;11.20;;;6.03;;
53391;SDS011;41667;51.922;8.850;2023-05-13T06:36:19;6.22;;;5.00;;
53391;SDS011;41667;51.922;8.850;2023-05-13T06:38:44;6.27;;;5.67;;
53391;SDS011;41667;51.922;8.850;2023-05-13T06:41:10;6.60;;;5.05;;
53391;SDS011;41667;51.922;8.850;2023-05-13T06:43:35;6.93;;;4.07;;
53391;SDS011;41667;51.922;8.850;2023-05-13T06:46:00;6.10;;;4.47;;
53391;SDS011;41667;51.922;8.850;2023-05-13T06:48:25;7.95;;;4.60;;
53391;SDS011;41667;51.922;8.850;2023-05-13T06:50:50;5.93;;;4.80;;
53391;SDS011;41667;51.922;8.850;2023-05-13T06:53:16;6.10;;;4.20;;
53391;SDS011;41667;51.922;8.850;2023-05-13T06:55:41;6.63;;;4.25;;
53391;SDS011;41667;51.922;8.850;2023-05-13T06:58:06;7.97;;;4.22;;
53391;SDS011;41667;51.922;8.850;2023-05-13T07:00:35;5.20;;;4.68;;
53391;SDS011;41667;51.922;8.850;2023-05-13T07:03:00;6.18;;;5.20;;
53391;SDS011;41667;51.922;8.850;2023-05-13T07:05:27;4.82;;;4.30;;
53391;SDS011;41667;51.922;8.850;2023-05-13T07:07:52;9.90;;;4.13;;
53391;SDS011;41667;51.922;8.850;2023-05-13T07:10:17;6.43;;;3.63;;
53391;SDS011;41667;51.922;8.850;2023-05-13T07:12:42;6.53;;;4.03;;
53391;SDS011;41667;51.922;8.850;2023-05-13T07:15:08;4.90;;;4.50;;
53391;SDS011;41667;51.922;8.850;2023-05-13T07:17:33;4.88;;;3.97;;
53391;SDS011;41667;51.922;8.850;2023-05-13T07:19:58;8.90;;;4.70;;
53391;SDS011;41667;51.922;8.850;2023-05-13T07:22:23;3.95;;;3.65;;
53391;SDS011;41667;51.922;8.850;2023-05-13T07:24:48;6.18;;;4.43;;
53391;SDS011;41667;51.922;8.850;2023-05-13T07:27:13;4.30;;;3.90;;
53391;SDS011;41667;51.922;8.850;2023-05-13T07:29:39;5.28;;;3.63;;
53391;SDS011;41667;51.922;8.850;2023-05-13T07:32:04;3.95;;;3.50;;
53391;SDS011;41667;51.922;8.850;2023-05-13T07:34:29;5.93;;;3.80;;
53391;SDS011;41667;51.922;8.850;2023-05-13T07:36:54;5.10;;;3.87;;
53391;SDS011;41667;51.922;8.850;2023-05-13T07:39:20;12.40;;;4.35;;
53391;SDS011;41667;51.922;8.850;2023-05-13T07:41:45;5.18;;;3.75;;
53391;SDS011;41667;51.922;8.850;2023-05-13T07:44:10;5.15;;;3.80;;
53391;SDS011;41667;51.922;8.850;2023-05-13T07:46:37;4.35;;;3.95;;
53391;SDS011;41667;51.922;8.850;2023-05-13T07:49:02;4.13;;;3.35;;
53391;SDS011;41667;51.922;8.850;2023-05-13T07:51:30;4.13;;;3.35;;
53391;SDS011;41667;51.922;8.850;2023-05-13T07:53:55;6.77;;;4.10;;
53391;SDS011;41667;51.922;8.850;2023-05-13T07:56:21;4.07;;;3.63;;
53391;SDS011;41667;51.922;8.850;2023-05-13T07:58:46;11.50;;;3.27;;
53391;SDS011;41667;51.922;8.850;2023-05-13T08:01:11;4.30;;;3.47;;
53391;SDS011;41667;51.922;8.850;2023-05-13T08:03:36;9.57;;;3.20;;
53391;SDS011;41667;51.922;8.850;2023-05-13T08:06:01;5.10;;;3.90;;
53391;SDS011;41667;51.922;8.850;2023-05-13T08:08:26;3.80;;;3.42;;
53391;SDS011;41667;51.922;8.850;2023-05-13T08:10:51;6.23;;;4.77;;
53391;SDS011;41667;51.922;8.850;2023-05-13T08:13:16;4.45;;;3.25;;
53391;SDS011;41667;51.922;8.850;2023-05-13T08:15:42;7.13;;;3.25;;
53391;SDS011;41667;51.922;8.850;2023-05-13T08:18:07;4.93;;;4.30;;
53391;SDS011;41667;51.922;8.850;2023-05-13T08:20:32;4.60;;;3.55;;
53391;SDS011;41667;51.922;8.850;2023-05-13T08:22:57;3.90;;;3.30;;
53391;SDS011;41667;51.922;8.850;2023-05-13T08:25:22;6.33;;;3.63;;
53391;SDS011;41667;51.922;8.850;2023-05-13T08:27:48;4.82;;;3.50;;
53391;SDS011;41667;51.922;8.850;2023-05-13T08:30:13;4.07;;;3.20;;
53391;SDS011;41667;51.922;8.850;2023-05-13T08:32:38;6.80;;;3.42;;
53391;SDS011;41667;51.922;8.850;2023-05-13T08:35:03;8.15;;;3.90;;
53391;SDS011;41667;51.922;8.850;2023-05-13T08:37:29;5.15;;;3.47;;
53391;SDS011;41667;51.922;8.850;2023-05-13T08:39:54;9.52;;;4.20;;
53391;SDS011;41667;51.922;8.850;2023-05-13T08:42:20;7.82;;;3.65;;
53391;SDS011;41667;51.922;8.850;2023-05-13T08:44:46;3.70;;;3.40;;
53391;SDS011;41667;51.922;8.850;2023-05-13T08:47:25;3.25;;;3.00;;
53391;SDS011;41667;51.922;8.850;2023-05-13T08:49:56;4.38;;;3.90;;
53391;SDS011;41667;51.922;8.850;2023-05-13T08:52:21;4.97;;;3.60;;
53391;SDS011;41667;51.922;8.850;2023-05-13T08:54:46;4.68;;;3.67;;
53391;SDS011;41667;51.922;8.850;2023-05-13T08:57:12;3.88;;;3.58;;
53391;SDS011;41667;51.922;8.850;2023-05-13T08:59:37;5.15;;;4.15;;
53391;SDS011;41667;51.922;8.850;2023-05-13T09:02:03;5.03;;;3.30;;
53391;SDS011;41667;51.922;8.850;2023-05-13T09:04:28;6.82;;;3.30;;
53391;SDS011;41667;51.922;8.850;2023-05-13T09:06:53;6.60;;;4.03;;
53391;SDS011;41667;51.922;8.850;2023-05-13T09:09:18;6.28;;;3.50;;
53391;SDS011;41667;51.922;8.850;2023-05-13T09:11:46;6.07;;;3.22;;
53391;SDS011;41667;51.922;8.850;2023-05-13T09:14:11;3.38;;;3.08;;
53391;SDS011;41667;51.922;8.850;2023-05-13T09:16:37;8.77;;;3.50;;
53391;SDS011;41667;51.922;8.850;2023-05-13T09:19:03;5.65;;;3.53;;
53391;SDS011;41667;51.922;8.850;2023-05-13T09:21:30;6.65;;;3.53;;
53391;SDS011;41667;51.922;8.850;2023-05-13T09:24:05;6.22;;;3.40;;
53391;SDS011;41667;51.922;8.850;2023-05-13T09:26:31;5.80;;;3.40;;
53391;SDS011;41667;51.922;8.850;2023-05-13T09:31:41;3.67;;;3.35;;
53391;SDS011;41667;51.922;8.850;2023-05-13T09:34:06;3.88;;;3.55;;
53391;SDS011;41667;51.922;8.850;2023-05-13T09:36:32;3.58;;;2.78;;
53391;SDS011;41667;51.922;8.850;2023-05-13T09:38:57;4.38;;;3.08;;
53391;SDS011;41667;51.922;8.850;2023-05-13T09:41:25;4.80;;;3.17;;
53391;SDS011;41667;51.922;8.850;2023-05-13T09:43:50;3.47;;;3.17;;
53391;SDS011;41667;51.922;8.850;2023-05-13T09:46:16;6.63;;;3.42;;
53391;SDS011;41667;51.922;8.850;2023-05-13T09:48:41;3.70;;;3.33;;
53391;SDS011;41667;51.922;8.850;2023-05-13T09:51:07;3.72;;;2.95;;
53391;SDS011;41667;51.922;8.850;2023-05-13T09:53:32;8.52;;;3.60;;
53391;SDS011;41667;51.922;8.850;2023-05-13T09:55:57;3.28;;;2.92;;
53391;SDS011;41667;51.922;8.850;2023-05-13T09:58:24;3.80;;;3.05;;
53391;SDS011;41667;51.922;8.850;2023-05-13T10:00:50;3.80;;;2.60;;
53391;SDS011;41667;51.922;8.850;2023-05-13T10:03:16;5.85;;;2.45;;
53391;SDS011;41667;51.922;8.850;2023-05-13T10:05:41;4.78;;;2.90;;
53391;SDS011;41667;51.922;8.850;2023-05-13T10:08:07;3.80;;;2.78;;
53391;SDS011;41667;51.922;8.850;2023-05-13T10:10:33;3.35;;;2.90;;
53391;SDS011;41667;51.922;8.850;2023-05-13T10:13:01;6.13;;;3.50;;
53391;SDS011;41667;51.922;8.850;2023-05-13T10:15:27;7.90;;;3.20;;
53391;SDS011;41667;51.922;8.850;2023-05-13T10:17:53;4.72;;;2.70;;
53391;SDS011;41667;51.922;8.850;2023-05-13T10:20:18;3.95;;;2.65;;
53391;SDS011;41667;51.922;8.850;2023-05-13T10:22:43;3.25;;;2.95;;
53391;SDS011;41667;51.922;8.850;2023-05-13T10:25:08;3.97;;;2.67;;
53391;SDS011;41667;51.922;8.850;2023-05-13T10:27:34;5.43;;;2.90;;
53391;SDS011;41667;51.922;8.850;2023-05-13T10:30:00;5.45;;;2.92;;
53391;SDS011;41667;51.922;8.850;2023-05-13T10:32:26;5.00;;;2.78;;
53391;SDS011;41667;51.922;8.850;2023-05-13T10:34:53;3.55;;;2.88;;
53391;SDS011;41667;51.922;8.850;2023-05-13T10:37:26;4.00;;;2.95;;
53391;SDS011;41667;51.922;8.850;2023-05-13T10:40:05;3.65;;;2.60;;
53391;SDS011;41667;51.922;8.850;2023-05-13T10:45:02;3.88;;;2.88;;
53391;SDS011;41667;51.922;8.850;2023-05-13T10:47:30;3.53;;;2.80;;
53391;SDS011;41667;51.922;8.850;2023-05-13T10:49:55;5.32;;;2.80;;
53391;SDS011;41667;51.922;8.850;2023-05-13T10:52:22;3.42;;;3.00;;
53391;SDS011;41667;51.922;8.850;2023-05-13T10:55:00;3.17;;;2.53;;
53391;SDS011;41667;51.922;8.850;2023-05-13T10:57:29;4.47;;;2.63;;
53391;SDS011;41667;51.922;8.850;2023-05-13T11:00:13;4.47;;;2.78;;
53391;SDS011;41667;51.922;8.850;2023-05-13T11:02:39;4.07;;;2.80;;
53391;SDS011;41667;51.922;8.850;2023-05-13T11:05:04;4.57;;;2.67;;
53391;SDS011;41667;51.922;8.850;2023-05-13T11:07:29;6.32;;;3.28;;
53391;SDS011;41667;51.922;8.850;2023-05-13T11:09:55;4.37;;;3.00;;
53391;SDS011;41667;51.922;8.850;2023-05-13T11:12:20;3.47;;;2.92;;
53391;SDS011;41667;51.922;8.850;2023-05-13T11:14:45;3.42;;;3.10;;
53391;SDS011;41667;51.922;8.850;2023-05-13T11:17:11;3.88;;;2.83;;
53391;SDS011;41667;51.922;8.850;2023-05-13T11:19:36;4.38;;;3.20;;
53391;SDS011;41667;51.922;8.850;2023-05-13T11:22:09;6.55;;;3.45;;
53391;SDS011;41667;51.922;8.850;2023-05-13T11:24:34;4.68;;;3.55;;
53391;SDS011;41667;51.922;8.850;2023-05-13T11:27:11;5.80;;;3.60;;
53391;SDS011;41667;51.922;8.850;2023-05-13T11:29:36;3.72;;;3.35;;
53391;SDS011;41667;51.922;8.850;2023-05-13T11:32:03;5.18;;;3.10;;
53391;SDS011;41667;51.922;8.850;2023-05-13T11:34:29;3.50;;;3.20;;
53391;SDS011;41667;51.922;8.850;2023-05-13T11:39:29;4.32;;;3.40;;
53391;SDS011;41667;51.922;8.850;2023-05-13T11:41:54;3.65;;;3.17;;
53391;SDS011;41667;51.922;8.850;2023-05-13T11:44:22;3.65;;;2.72;;
53391;SDS011;41667;51.922;8.850;2023-05-13T11:46:54;4.03;;;2.83;;
53391;SDS011;41667;51.922;8.850;2023-05-13T11:49:29;7.13;;;3.65;;
53391;SDS011;41667;51.922;8.850;2023-05-13T11:51:56;7.75;;;2.50;;
53391;SDS011;41667;51.922;8.850;2023-05-13T11:54:22;3.25;;;2.75;;
53391;SDS011;41667;51.922;8.850;2023-05-13T11:56:47;4.57;;;2.50;;
53391;SDS011;41667;51.922;8.850;2023-05-13T11:59:12;3.30;;;2.97;;
53391;SDS011;41667;51.922;8.850;2023-05-13T12:01:40;5.65;;;3.17;;
53391;SDS011;41667;51.922;8.850;2023-05-13T12:04:05;4.23;;;2.87;;
53391;SDS011;41667;51.922;8.850;2023-05-13T12:06:31;5.13;;;2.80;;
53391;SDS011;41667;51.922;8.850;2023-05-13T12:09:03;3.63;;;2.70;;
53391;SDS011;41667;51.922;8.850;2023-05-13T12:11:28;3.55;;;2.58;;
53391;SDS011;41667;51.922;8.850;2023-05-13T12:13:54;3.57;;;2.97;;
53391;SDS011;41667;51.922;8.850;2023-05-13T12:16:19;5.00;;;3.03;;
53391;SDS011;41667;51.922;8.850;2023-05-13T12:18:53;4.43;;;2.93;;
53391;SDS011;41667;51.922;8.850;2023-05-13T12:21:20;4.60;;;2.60;;
53391;SDS011;41667;51.922;8.850;2023-05-13T12:23:45;7.57;;;3.10;;
53391;SDS011;41667;51.922;8.850;2023-05-13T12:26:10;3.58;;;2.60;;
53391;SDS011;41667;51.922;8.850;2023-05-13T12:28:36;2.87;;;2.57;;
53391;SDS011;41667;51.922;8.850;2023-05-13T12:31:02;5.13;;;2.72;;
53391;SDS011;41667;51.922;8.850;2023-05-13T12:33:28;3.42;;;2.80;;
53391;SDS011;41667;51.922;8.850;2023-05-13T12:38:37;6.10;;;3.03;;
53391;SDS011;41667;51.922;8.850;2023-05-13T12:41:09;2.83;;;2.25;;
53391;SDS011;41667;51.922;8.850;2023-05-13T12:43:34;4.97;;;3.13;;
53391;SDS011;41667;51.922;8.850;2023-05-13T12:46:00;3.13;;;2.83;;
53391;SDS011;41667;51.922;8.850;2023-05-13T12:48:25;5.53;;;2.90;;
53391;SDS011;41667;51.922;8.850;2023-05-13T12:50:50;4.27;;;3.03;;
53391;SDS011;41667;51.922;8.850;2023-05-13T12:53:16;6.32;;;3.45;;
53391;SDS011;41667;51.922;8.850;2023-05-13T12:55:41;5.53;;;3.55;;
53391;SDS011;41667;51.922;8.850;2023-05-13T12:58:06;3.10;;;2.90;;
53391;SDS011;41667;51.922;8.850;2023-05-13T13:00:31;3.97;;;2.80;;
53391;SDS011;41667;51.922;8.850;2023-05-13T13:02:56;2.95;;;2.70;;
53391;SDS011;41667;51.922;8.850;2023-05-13T13:05:22;8.10;;;2.87;;
53391;SDS011;41667;51.922;8.850;2023-05-13T13:07:47;3.35;;;2.83;;
53391;SDS011;41667;51.922;8.850;2023-05-13T13:10:13;2.47;;;2.28;;
53391;SDS011;41667;51.922;8.850;2023-05-13T13:12:38;3.33;;;2.90;;
53391;SDS011;41667;51.922;8.850;2023-05-13T13:15:06;3.28;;;2.97;;
53391;SDS011;41667;51.922;8.850;2023-05-13T13:17:32;4.28;;;2.85;;
53391;SDS011;41667;51.922;8.850;2023-05-13T13:19:57;4.63;;;2.80;;
53391;SDS011;41667;51.922;8.850;2023-05-13T13:22:22;4.90;;;2.60;;
53391;SDS011;41667;51.922;8.850;2023-05-13T13:24:47;3.25;;;2.58;;
53391;SDS011;41667;51.922;8.850;2023-05-13T13:27:12;6.40;;;2.78;;
53391;SDS011;41667;51.922;8.850;2023-05-13T13:29:37;2.93;;;2.10;;
53391;SDS011;41667;51.922;8.850;2023-05-13T13:32:02;4.77;;;2.40;;
53391;SDS011;41667;51.922;8.850;2023-05-13T13:34:28;6.28;;;2.85;;
53391;SDS011;41667;51.922;8.850;2023-05-13T13:36:53;2.40;;;2.20;;
53391;SDS011;41667;51.922;8.850;2023-05-13T13:39:20;2.38;;;2.10;;
53391;SDS011;41667;51.922;8.850;2023-05-13T13:41:45;5.40;;;2.78;;
53391;SDS011;41667;51.922;8.850;2023-05-13T13:44:11;2.60;;;2.40;;
53391;SDS011;41667;51.922;8.850;2023-05-13T13:46:36;2.40;;;2.20;;
53391;SDS011;41667;51.922;8.850;2023-05-13T13:49:01;3.83;;;2.47;;
53391;SDS011;41667;51.922;8.850;2023-05-13T13:51:26;2.35;;;2.10;;
53391;SDS011;41667;51.922;8.850;2023-05-13T13:53:51;4.22;;;2.05;;
53391;SDS011;41667;51.922;8.850;2023-05-13T13:56:16;3.28;;;1.85;;
53391;SDS011;41667;51.922;8.850;2023-05-13T13:58:42;6.07;;;2.23;;
53391;SDS011;41667;51.922;8.850;2023-05-13T14:01:07;2.40;;;1.83;;
53391;SDS011;41667;51.922;8.850;2023-05-13T14:03:32;5.47;;;1.93;;
53391;SDS011;41667;51.922;8.850;2023-05-13T14:05:57;2.33;;;2.13;;
53391;SDS011;41667;51.922;8.850;2023-05-13T14:08:22;2.33;;;2.13;;
53391;SDS011;41667;51.922;8.850;2023-05-13T14:10:47;4.60;;;2.40;;
53391;SDS011;41667;51.922;8.850;2023-05-13T14:13:13;4.63;;;2.38;;
53391;SDS011;41667;51.922;8.850;2023-05-13T14:15:38;2.03;;;1.90;;
53391;SDS011;41667;51.922;8.850;2023-05-13T14:18:03;2.42;;;2.22;;
53391;SDS011;41667;51.922;8.850;2023-05-13T14:20:30;3.15;;;2.60;;
53391;SDS011;41667;51.922;8.850;2023-05-13T14:22:57;2.40;;;2.20;;
53391;SDS011;41667;51.922;8.850;2023-05-13T14:25:23;2.40;;;2.20;;
53391;SDS011;41667;51.922;8.850;2023-05-13T14:27:48;3.20;;;2.20;;
53391;SDS011;41667;51.922;8.850;2023-05-13T14:30:13;3.13;;;2.20;;
53391;SDS011;41667;51.922;8.850;2023-05-13T14:32:39;9.73;;;2.47;;
53391;SDS011;41667;51.922;8.850;2023-05-13T14:35:06;2.22;;;2.03;;
53391;SDS011;41667;51.922;8.850;2023-05-13T14:37:31;3.17;;;2.05;;
53391;SDS011;41667;51.922;8.850;2023-05-13T14:39:56;9.18;;;2.28;;
53391;SDS011;41667;51.922;8.850;2023-05-13T14:42:21;3.10;;;2.00;;
53391;SDS011;41667;51.922;8.850;2023-05-13T14:44:47;2.80;;;2.57;;
53391;SDS011;41667;51.922;8.850;2023-05-13T14:47:12;2.58;;;2.38;;
53391;SDS011;41667;51.922;8.850;2023-05-13T14:49:37;2.63;;;2.40;;
53391;SDS011;41667;51.922;8.850;2023-05-13T14:52:02;2.35;;;2.15;;
53391;SDS011;41667;51.922;8.850;2023-05-13T14:54:27;2.50;;;1.93;;